Time;durP1;ratioP1;P1;durP2;ratioP2;P2;SDS_P1;SDS_P2;PMS_P1;PMS_P2;Temp;Humidity;BMP_temperature;BMP_pressure;BME280_temperature;BME280_humidity;BME280_pressure;Samples;Min_cycle;Max_cycle;Signal;HPM_P1;HPM_P2
2024/02/11 00:00:28;;;;;;;10.17;4.37;;;;;;;9.99;100.00;98601.53;5016999;28;20526;-68
2024/02/11 00:02:56;;;;;;;13.53;4.87;;;;;;;10.03;100.00;98601.63;5017098;28;20813;-68
2024/02/11 00:05:24;;;;;;;8.77;4.80;;;;;;;10.06;100.00;98595.53;5017051;28;20479;-68
2024/02/11 00:07:51;;;;;;;11.73;4.60;;;;;;;10.11;100.00;98596.06;5017174;28;20444;-68
2024/02/11 00:10:18;;;;;;;10.37;5.13;;;;;;;10.14;100.00;98591.06;5031365;22;20510;-71
2024/02/11 00:12:44;;;;;;;18.97;6.13;;;;;;;10.10;100.00;98591.78;5016625;28;20463;-71
2024/02/11 00:15:11;;;;;;;14.97;6.60;;;;;;;10.13;100.00;98584.09;5016636;28;20475;-70
2024/02/11 00:17:39;;;;;;;10.20;5.07;;;;;;;10.12;100.00;98577.91;5017442;28;20444;-70
2024/02/11 00:20:09;;;;;;;10.57;5.20;;;;;;;10.11;100.00;98581.75;5017298;28;20472;-70
2024/02/11 00:22:37;;;;;;;10.30;4.23;;;;;;;10.13;100.00;98584.88;5016855;28;20930;-71
2024/02/11 00:25:07;;;;;;;11.83;6.13;;;;;;;10.14;100.00;98575.66;5016885;28;20448;-71
2024/02/11 00:27:33;;;;;;;14.07;6.20;;;;;;;10.10;100.00;98580.19;5017138;28;20444;-71
2024/02/11 00:30:01;;;;;;;10.07;5.27;;;;;;;10.08;100.00;98571.63;5016598;28;20444;-71
2024/02/11 00:32:28;;;;;;;13.50;6.70;;;;;;;10.07;100.00;98573.53;5016648;28;20459;-71
2024/02/11 00:34:57;;;;;;;12.50;6.57;;;;;;;10.12;100.00;98569.78;5016849;28;20527;-71
2024/02/11 00:37:29;;;;;;;8.33;4.37;;;;;;;10.10;100.00;98563.94;5016299;28;20514;-71
2024/02/11 00:39:55;;;;;;;14.00;5.80;;;;;;;10.15;100.00;98566.41;5016737;28;20428;-71
2024/02/11 00:42:27;;;;;;;14.60;7.00;;;;;;;10.14;100.00;98569.44;5016162;28;20460;-71
2024/02/11 00:44:54;;;;;;;9.53;5.80;;;;;;;10.11;100.00;98570.94;5016521;28;20845;-71
2024/02/11 00:47:20;;;;;;;11.37;5.47;;;;;;;10.15;100.00;98566.41;5016358;28;20482;-71
2024/02/11 00:49:47;;;;;;;15.13;7.27;;;;;;;10.16;100.00;98567.19;5016364;28;20523;-71
2024/02/11 00:52:15;;;;;;;10.93;5.00;;;;;;;10.12;100.00;98572.50;5016203;28;20543;-71
2024/02/11 00:54:42;;;;;;;11.80;6.07;;;;;;;10.12;100.00;98567.09;5016758;28;20522;-71
2024/02/11 00:57:09;;;;;;;21.07;7.40;;;;;;;10.11;100.00;98560.88;5016221;28;20448;-71
2024/02/11 00:59:35;;;;;;;12.90;6.70;;;;;;;10.08;100.00;98553.47;5015921;28;20495;-71
2024/02/11 01:02:03;;;;;;;15.07;7.47;;;;;;;10.07;100.00;98554.59;5015141;28;21003;-71
2024/02/11 01:04:29;;;;;;;23.20;7.17;;;;;;;10.08;100.00;98556.16;5015763;28;20478;-71
2024/02/11 01:06:57;;;;;;;12.87;5.77;;;;;;;10.09;100.00;98546.94;5015900;28;20944;-71
2024/02/11 01:09:26;;;;;;;14.87;5.90;;;;;;;10.14;100.00;98545.91;5016365;28;20483;-71
2024/02/11 01:11:52;;;;;;;9.73;5.00;;;;;;;10.09;100.00;98540.72;5015895;28;20555;-71
2024/02/11 01:14:20;;;;;;;15.57;5.37;;;;;;;10.11;100.00;98544.66;5015622;28;20479;-71
2024/02/11 01:16:46;;;;;;;17.93;8.13;;;;;;;10.11;100.00;98543.88;5015673;28;20822;-71
2024/02/11 01:19:13;;;;;;;12.70;5.40;;;;;;;10.08;100.00;98541.84;5015900;28;20484;-71
2024/02/11 01:21:39;;;;;;;16.53;7.60;;;;;;;10.05;100.00;98543.34;5016176;28;20479;-71
2024/02/11 01:24:07;;;;;;;24.13;8.47;;;;;;;10.05;100.00;98546.06;5015742;28;20463;-71
2024/02/11 01:26:36;;;;;;;20.30;7.40;;;;;;;10.03;100.00;98536.72;5015689;28;20458;-71
2024/02/11 01:29:04;;;;;;;16.70;6.63;;;;;;;10.00;100.00;98537.41;5015634;28;20817;-71
2024/02/11 01:31:31;;;;;;;20.93;6.50;;;;;;;10.03;100.00;98542.13;5015392;28;20826;-71
2024/02/11 01:33:58;;;;;;;19.53;6.30;;;;;;;10.04;100.00;98539.06;5015574;28;20531;-72
2024/02/11 01:36:24;;;;;;;15.33;6.50;;;;;;;10.01;100.00;98544.41;5015433;28;20538;-71
2024/02/11 01:38:53;;;;;;;17.90;7.60;;;;;;;9.94;100.00;98541.50;5015413;28;21000;-71
2024/02/11 01:41:19;;;;;;;14.00;6.50;;;;;;;9.93;100.00;98537.22;5015392;28;20444;-71
2024/02/11 01:43:48;;;;;;;14.17;5.33;;;;;;;9.92;100.00;98536.44;5015381;28;20503;-71
2024/02/11 01:46:14;;;;;;;13.47;6.20;;;;;;;9.98;100.00;98545.09;5015277;28;20506;-71
2024/02/11 01:48:41;;;;;;;13.87;7.03;;;;;;;9.95;100.00;98549.25;5015592;28;20829;-71
2024/02/11 01:51:10;;;;;;;13.40;6.90;;;;;;;9.91;100.00;98545.66;5015275;28;20444;-71
2024/02/11 01:53:39;;;;;;;17.50;7.63;;;;;;;9.84;100.00;98546.28;5014794;28;20471;-71
2024/02/11 01:56:07;;;;;;;24.70;7.47;;;;;;;9.83;100.00;98550.13;5015221;28;20444;-71
2024/02/11 01:58:34;;;;;;;14.53;5.50;;;;;;;9.85;100.00;98547.84;5015038;28;20479;-71
2024/02/11 02:01:02;;;;;;;14.83;6.47;;;;;;;9.83;100.00;98550.13;5015227;28;20526;-71
2024/02/11 02:03:29;;;;;;;14.93;7.10;;;;;;;9.77;100.00;98548.00;5015247;28;20534;-71
2024/02/11 02:05:55;;;;;;;20.30;6.50;;;;;;;9.71;100.00;98547.47;5014658;28;21010;-71
2024/02/11 02:08:23;;;;;;;9.73;5.27;;;;;;;9.69;100.00;98548.94;5014841;28;20442;-71
2024/02/11 02:10:50;;;;;;;15.27;6.70;;;;;;;9.67;100.00;98551.22;5014612;28;20463;-71
2024/02/11 02:13:17;;;;;;;14.10;5.83;;;;;;;9.66;100.00;98547.72;5014912;28;20464;-71
2024/02/11 02:15:43;;;;;;;17.60;7.70;;;;;;;9.72;100.00;98542.84;5014855;28;20522;-71
2024/02/11 02:18:11;;;;;;;13.87;5.73;;;;;;;9.76;100.00;98555.34;5015201;28;20502;-71
2024/02/11 02:20:38;;;;;;;18.53;5.90;;;;;;;9.76;100.00;98555.34;5014710;28;20514;-71
2024/02/11 02:23:06;;;;;;;12.27;6.67;;;;;;;9.75;100.00;98542.16;5014584;28;20474;-71
2024/02/11 02:25:33;;;;;;;10.70;5.80;;;;;;;9.72;100.00;98537.44;5014257;28;20862;-71
2024/02/11 02:28:04;;;;;;;13.53;5.83;;;;;;;9.72;100.00;98527.41;5014545;28;20506;-71
2024/02/11 02:30:31;;;;;;;10.13;5.20;;;;;;;9.74;100.00;98529.75;5014588;28;20420;-71
2024/02/11 02:32:57;;;;;;;13.57;5.93;;;;;;;9.72;100.00;98532.81;5014443;28;20547;-71
2024/02/11 02:35:24;;;;;;;17.87;6.30;;;;;;;9.74;100.00;98521.66;5014103;28;20522;-72
2024/02/11 02:37:52;;;;;;;14.43;7.13;;;;;;;9.76;100.00;98527.50;5014337;28;20534;-72
2024/02/11 02:40:24;;;;;;;13.67;5.30;;;;;;;9.74;100.00;98527.88;5014654;28;20483;-70
2024/02/11 02:42:51;;;;;;;15.83;6.43;;;;;;;9.75;100.00;98526.72;5014277;28;20468;-70
2024/02/11 02:45:17;;;;;;;10.70;4.50;;;;;;;9.73;100.00;98518.16;5014228;28;20451;-71
2024/02/11 02:47:46;;;;;;;14.10;5.60;;;;;;;9.70;100.00;98518.88;5014226;28;20523;-71
2024/02/11 02:50:14;;;;;;;18.30;5.03;;;;;;;9.73;100.00;98511.97;5014877;28;20539;-71
2024/02/11 02:52:42;;;;;;;16.03;6.53;;;;;;;9.69;100.00;98525.41;5013831;28;20464;-70
2024/02/11 02:55:09;;;;;;;18.50;6.10;;;;;;;9.71;100.00;98508.84;5014392;28;20518;-70
2024/02/11 02:57:37;;;;;;;14.27;5.93;;;;;;;9.67;100.00;98511.44;5013737;28;20506;-71
2024/02/11 03:00:05;;;;;;;12.50;5.63;;;;;;;9.65;100.00;98505.63;5013941;28;20526;-71
2024/02/11 03:02:34;;;;;;;18.67;6.13;;;;;;;9.65;100.00;98502.09;5013913;28;20915;-71
2024/02/11 03:05:01;;;;;;;19.67;7.23;;;;;;;9.60;100.00;98497.72;5014146;28;20448;-71
2024/02/11 03:07:28;;;;;;;18.20;7.77;;;;;;;9.62;100.00;98500.13;5013546;28;20932;-71
2024/02/11 03:09:54;;;;;;;12.03;5.43;;;;;;;9.58;100.00;98494.59;5013405;28;21011;-71
2024/02/11 03:12:21;;;;;;;19.43;6.70;;;;;;;9.60;100.00;98492.31;5013621;28;21039;-71
2024/02/11 03:14:50;;;;;;;13.67;5.70;;;;;;;9.66;100.00;98490.97;5013535;28;21007;-71
2024/02/11 03:17:16;;;;;;;11.60;6.00;;;;;;;9.69;100.00;98495.66;5013507;28;20454;-71
2024/02/11 03:19:43;;;;;;;13.53;5.30;;;;;;;9.62;100.00;98489.31;5013798;28;20492;-71
2024/02/11 03:22:11;;;;;;;19.30;6.37;;;;;;;9.66;100.00;98488.25;5014108;28;20573;-71
2024/02/11 03:24:38;;;;;;;15.50;5.83;;;;;;;9.70;100.00;98496.47;5013401;28;20444;-71
2024/02/11 03:27:05;;;;;;;19.87;8.40;;;;;;;9.76;100.00;98495.84;5014298;28;20444;-71
2024/02/11 03:29:32;;;;;;;14.27;6.13;;;;;;;9.72;100.00;98503.09;5013687;28;20527;-71
2024/02/11 03:32:00;;;;;;;16.50;6.10;;;;;;;9.77;100.00;98505.53;5013817;28;20548;-71
2024/02/11 03:34:27;;;;;;;16.70;6.40;;;;;;;9.65;100.00;98494.81;5014004;28;20444;-71
2024/02/11 03:36:53;;;;;;;13.30;7.13;;;;;;;9.65;100.00;98499.41;5013483;28;20451;-71
2024/02/11 03:39:21;;;;;;;16.83;6.83;;;;;;;9.67;100.00;98494.44;5013901;28;20884;-71
2024/02/11 03:41:48;;;;;;;14.67;6.00;;;;;;;9.69;100.00;98501.06;5013826;28;20559;-71
2024/02/11 03:44:14;;;;;;;14.90;5.83;;;;;;;9.71;100.00;98498.81;5013626;28;20459;-71
2024/02/11 03:46:41;;;;;;;13.23;5.93;;;;;;;9.63;100.00;98499.75;5013371;28;20443;-71
2024/02/11 03:49:09;;;;;;;9.90;6.17;;;;;;;9.62;100.00;98495.50;5013508;28;20436;-71
2024/02/11 03:51:36;;;;;;;11.83;5.73;;;;;;;9.61;100.00;98504.72;5013463;28;20811;-71
2024/02/11 03:54:04;;;;;;;27.30;6.97;;;;;;;9.69;100.00;98497.56;5013489;28;20535;-71
2024/02/11 03:56:35;;;;;;;13.40;5.40;;;;;;;9.67;100.00;98497.94;5013907;28;20444;-71
2024/02/11 03:59:03;;;;;;;17.03;7.90;;;;;;;9.63;100.00;98497.06;5013530;28;20984;-71
2024/02/11 04:01:29;;;;;;;10.63;5.20;;;;;;;9.66;100.00;98495.59;5013202;28;20436;-71
2024/02/11 04:03:56;;;;;;;9.37;5.47;;;;;;;9.66;100.00;98498.28;5013867;28;20507;-71
2024/02/11 04:06:24;;;;;;;9.83;4.70;;;;;;;9.65;100.00;98500.22;5013172;28;21010;-71
2024/02/11 04:08:51;;;;;;;14.37;6.00;;;;;;;9.65;100.00;98491.28;5013463;28;20478;-71
2024/02/11 04:11:19;;;;;;;13.13;5.57;;;;;;;9.60;100.00;98495.03;5013600;28;20444;-71
2024/02/11 04:13:46;;;;;;;13.27;5.83;;;;;;;9.53;100.00;98497.56;5013567;28;20460;-71
2024/02/11 04:16:15;;;;;;;15.83;5.87;;;;;;;9.45;100.00;98495.78;5013286;28;20536;-71
2024/02/11 04:18:42;;;;;;;17.40;6.50;;;;;;;9.44;100.00;98496.94;5013452;28;20440;-71
2024/02/11 04:21:10;;;;;;;13.93;6.00;;;;;;;9.48;100.00;98495.91;5013241;28;20439;-72
2024/02/11 04:23:38;;;;;;;18.63;5.37;;;;;;;9.52;100.00;98496.78;5012859;28;20810;-72
2024/02/11 04:26:07;;;;;;;12.67;6.83;;;;;;;9.47;100.00;98493.53;5013491;28;20447;-71
2024/02/11 04:28:35;;;;;;;16.67;5.77;;;;;;;9.52;100.00;98482.47;5013182;28;20462;-71
2024/02/11 04:31:04;;;;;;;9.97;4.87;;;;;;;9.51;100.00;98487.06;5013727;28;20440;-71
2024/02/11 04:33:30;;;;;;;11.53;6.20;;;;;;;9.47;100.00;98480.78;5013649;28;20460;-71
2024/02/11 04:36:00;;;;;;;18.30;5.63;;;;;;;9.55;100.00;98484.47;4995412;28;20880;-71
2024/02/11 04:38:27;;;;;;;14.10;6.30;;;;;;;9.54;100.00;98480.22;5015533;28;20959;-71
2024/02/11 04:40:55;;;;;;;18.47;6.50;;;;;;;9.56;100.00;98481.44;5016487;28;20487;-71
2024/02/11 04:43:22;;;;;;;17.70;7.10;;;;;;;9.58;100.00;98478.38;5016505;28;20874;-71
2024/02/11 04:45:48;;;;;;;18.73;6.43;;;;;;;9.55;100.00;98485.25;5017006;28;20530;-71
2024/02/11 04:48:19;;;;;;;14.23;5.30;;;;;;;9.53;100.00;98474.03;5016467;28;20451;-71
2024/02/11 04:50:46;;;;;;;15.30;7.20;;;;;;;9.54;100.00;98477.50;5016673;28;20482;-71
2024/02/11 04:53:13;;;;;;;17.00;8.40;;;;;;;9.51;100.00;98475.50;5016417;28;20554;-71
2024/02/11 04:55:43;;;;;;;17.70;5.40;;;;;;;9.51;100.00;98478.97;5016268;28;20444;-71
2024/02/11 04:58:14;;;;;;;16.83;7.33;;;;;;;9.53;100.00;98481.34;5016239;28;20509;-71
2024/02/11 05:00:42;;;;;;;12.40;6.20;;;;;;;9.51;100.00;98486.28;5016466;28;20514;-71
2024/02/11 05:03:10;;;;;;;12.13;5.70;;;;;;;9.52;100.00;98471.69;5016076;28;20830;-71
2024/02/11 05:05:41;;;;;;;22.30;6.37;;;;;;;9.50;100.00;98482.81;5016099;28;20440;-72
2024/02/11 05:08:09;;;;;;;15.30;6.70;;;;;;;9.50;100.00;98482.03;5016159;28;20885;-71
2024/02/11 05:10:38;;;;;;;16.53;6.60;;;;;;;9.52;100.00;98483.28;5016077;28;20448;-71
2024/02/11 05:13:05;;;;;;;13.70;5.77;;;;;;;9.47;100.00;98482.72;5015577;28;20472;-71
2024/02/11 05:15:33;;;;;;;13.70;5.57;;;;;;;9.42;100.00;98486.44;5016619;28;20451;-71
2024/02/11 05:18:01;;;;;;;16.40;5.40;;;;;;;9.46;100.00;98481.94;5016178;28;20428;-71
2024/02/11 05:20:29;;;;;;;13.57;5.20;;;;;;;9.44;100.00;98478.03;5015702;28;20479;-71
2024/02/11 05:22:57;;;;;;;15.60;5.60;;;;;;;9.48;100.00;98476.19;5015803;28;20980;-71
2024/02/11 05:25:25;;;;;;;18.93;5.57;;;;;;;9.45;100.00;98484.97;5015505;28;20786;-71
2024/02/11 05:27:58;;;;;;;15.90;6.13;;;;;;;9.39;100.00;98479.06;5015654;28;20440;-74
2024/02/11 05:30:26;;;;;;;23.20;6.57;;;;;;;9.43;100.00;98481.81;5015954;28;20424;-71
2024/02/11 05:32:56;;;;;;;23.97;6.90;;;;;;;9.40;100.00;98469.81;5015543;28;20553;-71
2024/02/11 05:35:24;;;;;;;17.27;7.10;;;;;;;9.40;100.00;98479.84;5015625;28;20519;-71
2024/02/11 05:37:57;;;;;;;24.93;5.47;;;;;;;9.43;100.00;98477.22;5015493;28;20436;-71
2024/02/11 05:40:24;;;;;;;16.83;6.20;;;;;;;9.42;100.00;98480.25;5015662;28;20476;-71
2024/02/11 05:42:50;;;;;;;12.57;4.80;;;;;;;9.39;100.00;98481.75;5015415;28;20552;-71
2024/02/11 05:45:17;;;;;;;17.50;6.83;;;;;;;9.38;100.00;98479.38;5015017;28;20527;-71
2024/02/11 05:47:44;;;;;;;19.37;5.73;;;;;;;9.32;100.00;98482.34;5014941;28;20448;-71
2024/02/11 05:50:12;;;;;;;12.37;5.20;;;;;;;9.39;100.00;98481.75;5015253;28;20518;-71
2024/02/11 05:52:39;;;;;;;18.87;7.13;;;;;;;9.38;100.00;98472.06;5014925;28;20986;-70
2024/02/11 05:55:09;;;;;;;19.23;7.33;;;;;;;9.34;100.00;98480.09;5015167;28;20531;-70
2024/02/11 05:57:36;;;;;;;12.70;5.33;;;;;;;9.32;100.00;98471.53;5015523;28;20978;-70
2024/02/11 06:00:10;;;;;;;13.93;6.00;;;;;;;9.33;100.00;98469.59;5015362;28;20521;-70
2024/02/11 06:02:37;;;;;;;15.27;6.00;;;;;;;9.32;100.00;98476.94;5015050;28;20499;-70
2024/02/11 06:05:06;;;;;;;16.57;6.27;;;;;;;9.33;100.00;98480.41;5014935;28;20523;-71
2024/02/11 06:07:34;;;;;;;12.20;5.07;;;;;;;9.34;100.00;98480.09;5014934;28;20444;-71
2024/02/11 06:10:01;;;;;;;13.73;5.37;;;;;;;9.37;100.00;98484.00;5031355;22;20645;-66
2024/02/11 06:12:29;;;;;;;11.10;4.90;;;;;;;9.40;100.00;98487.94;5034781;28;20455;-66
2024/02/11 06:14:56;;;;;;;16.20;6.70;;;;;;;9.38;100.00;98484.78;5034852;28;20447;-66
2024/02/11 06:17:23;;;;;;;11.90;6.33;;;;;;;9.33;100.00;98491.22;5034872;28;20505;-66
2024/02/11 06:19:52;;;;;;;9.13;4.93;;;;;;;9.31;100.00;98490.78;5034362;28;20478;-66
2024/02/11 06:22:18;;;;;;;18.50;6.03;;;;;;;9.28;100.00;98492.25;5034381;28;20455;-67
2024/02/11 06:24:47;;;;;;;10.20;5.57;;;;;;;9.30;100.00;98490.00;5034375;28;20443;-66
2024/02/11 06:27:14;;;;;;;14.17;6.20;;;;;;;9.28;100.00;98488.75;5034324;28;20440;-66
2024/02/11 06:29:41;;;;;;;9.47;4.67;;;;;;;9.24;100.00;98490.59;5033986;28;20531;-66
2024/02/11 06:32:08;;;;;;;15.30;5.47;;;;;;;9.20;100.00;98500.50;5034202;28;20974;-66
2024/02/11 06:34:36;;;;;;;16.27;5.67;;;;;;;9.16;100.00;98505.78;5033855;28;20811;-66
2024/02/11 06:37:03;;;;;;;15.03;6.80;;;;;;;9.13;100.00;98501.09;5034061;28;20888;-66
2024/02/11 06:39:30;;;;;;;17.00;6.03;;;;;;;9.12;100.00;98513.03;5033736;28;20833;-66
2024/02/11 06:42:02;;;;;;;11.27;5.70;;;;;;;9.13;100.00;98508.41;5034043;28;21050;-66
2024/02/11 06:44:29;;;;;;;14.63;6.33;;;;;;;9.09;100.00;98517.19;5034085;28;20915;-66
2024/02/11 06:46:56;;;;;;;13.77;5.73;;;;;;;9.09;100.00;98524.50;5034485;28;20471;-66
2024/02/11 06:49:23;;;;;;;18.53;6.53;;;;;;;9.10;100.00;98512.56;5033954;28;20453;-66
2024/02/11 06:51:51;;;;;;;20.83;6.57;;;;;;;9.08;100.00;98526.44;5034093;28;20455;-66
2024/02/11 06:54:18;;;;;;;20.10;6.17;;;;;;;9.11;100.00;98527.66;5033988;28;20439;-66
2024/02/11 06:56:47;;;;;;;13.13;4.97;;;;;;;9.10;100.00;98520.69;5033884;28;21197;-66
2024/02/11 06:59:16;;;;;;;10.83;5.60;;;;;;;9.10;100.00;98526.06;5033255;28;20439;-66
2024/02/11 07:01:42;;;;;;;19.23;5.90;;;;;;;9.12;100.00;98526.53;5033154;28;20871;-66
2024/02/11 07:04:12;;;;;;;16.00;6.50;;;;;;;9.11;100.00;98530.34;5033771;28;20463;-66
2024/02/11 07:06:43;;;;;;;18.27;5.77;;;;;;;9.13;100.00;98533.50;5033669;28;20927;-66
2024/02/11 07:09:11;;;;;;;11.80;4.93;;;;;;;9.09;100.00;98527.22;5033681;28;20447;-66
2024/02/11 07:11:37;;;;;;;16.80;6.10;;;;;;;9.02;100.00;98529.69;5033231;28;20507;-66
2024/02/11 07:14:04;;;;;;;9.80;5.13;;;;;;;9.07;100.00;98524.88;5033602;28;20463;-66
2024/02/11 07:16:32;;;;;;;14.13;6.33;;;;;;;9.09;100.00;98535.31;5034186;28;20521;-66
2024/02/11 07:18:59;;;;;;;16.23;7.57;;;;;;;9.07;100.00;98530.25;5033248;28;20435;-66
2024/02/11 07:21:26;;;;;;;12.43;4.33;;;;;;;9.08;100.00;98528.34;5033521;28;20525;-66
2024/02/11 07:23:52;;;;;;;11.60;5.63;;;;;;;9.06;100.00;98542.16;5033505;28;20481;-66
2024/02/11 07:26:19;;;;;;;18.43;6.60;;;;;;;9.04;100.00;98541.75;5033158;28;20817;-66
2024/02/11 07:28:48;;;;;;;11.83;5.97;;;;;;;9.07;100.00;98541.06;5033590;28;20602;-66
2024/02/11 07:31:15;;;;;;;10.57;5.20;;;;;;;9.06;100.00;98536.00;5033600;28;20442;-65
2024/02/11 07:33:43;;;;;;;12.90;5.90;;;;;;;9.05;100.00;98540.59;5033604;28;20471;-65
2024/02/11 07:36:10;;;;;;;11.27;5.80;;;;;;;9.06;100.00;98547.56;5033701;28;20443;-65
2024/02/11 07:38:37;;;;;;;16.80;5.43;;;;;;;9.00;100.00;98545.47;5033307;28;20957;-65
2024/02/11 07:41:07;;;;;;;19.83;6.47;;;;;;;8.98;100.00;98547.69;5033179;28;20862;-65
2024/02/11 07:43:34;;;;;;;14.07;5.83;;;;;;;8.99;100.00;98546.59;5034444;28;20471;-65
2024/02/11 07:46:02;;;;;;;15.03;6.10;;;;;;;8.95;100.00;98540.31;5033479;28;20486;-65
2024/02/11 07:48:29;;;;;;;20.03;6.13;;;;;;;8.95;100.00;98549.19;5033449;28;20448;-65
2024/02/11 07:50:57;;;;;;;14.97;4.80;;;;;;;9.01;100.00;98544.34;5033313;28;20986;-65
2024/02/11 07:53:23;;;;;;;11.30;4.67;;;;;;;8.99;100.00;98549.28;5033213;28;20490;-66
2024/02/11 07:55:50;;;;;;;12.07;4.90;;;;;;;8.95;100.00;98540.31;5033199;28;20511;-66
2024/02/11 07:58:17;;;;;;;16.37;5.47;;;;;;;8.97;100.00;98546.13;5033258;28;20439;-66
2024/02/11 08:00:44;;;;;;;8.53;3.93;;;;;;;8.98;100.00;98543.09;5033554;28;20585;-67
2024/02/11 08:03:10;;;;;;;20.60;7.17;;;;;;;8.99;100.00;98543.91;5033299;28;20474;-68
2024/02/11 08:05:37;;;;;;;13.37;4.90;;;;;;;9.00;100.00;98542.75;5034252;28;20497;-68
2024/02/11 08:08:06;;;;;;;20.50;6.60;;;;;;;8.97;100.00;98546.13;5033958;28;20470;-66
2024/02/11 08:10:33;;;;;;;13.80;5.17;;;;;;;8.97;100.00;98546.91;5033807;28;20501;-67
2024/02/11 08:12:59;;;;;;;10.60;4.73;;;;;;;8.98;100.00;98547.69;5036363;28;21008;-67
2024/02/11 08:15:26;;;;;;;11.70;5.10;;;;;;;8.99;100.00;98549.28;5036595;28;20435;-67
2024/02/11 08:17:53;;;;;;;16.43;6.93;;;;;;;8.96;100.00;98549.97;5036458;28;20526;-67
2024/02/11 08:20:20;;;;;;;12.40;4.63;;;;;;;8.97;100.00;98546.13;5036466;28;20482;-67
2024/02/11 08:22:47;;;;;;;18.10;5.07;;;;;;;8.99;100.00;98552.00;5036759;28;20500;-70
2024/02/11 08:25:15;;;;;;;16.40;5.50;;;;;;;8.97;100.00;98546.13;5036644;28;20454;-68
2024/02/11 08:27:42;;;;;;;13.03;5.00;;;;;;;8.98;100.00;98550.41;5036340;28;20466;-68
2024/02/11 08:30:10;;;;;;;17.33;6.00;;;;;;;9.00;100.00;98553.56;5036682;28;20442;-68
2024/02/11 08:32:38;;;;;;;12.80;5.40;;;;;;;8.96;100.00;98548.06;5036394;28;20558;-68
2024/02/11 08:35:05;;;;;;;14.07;6.30;;;;;;;8.96;100.00;98545.34;5036618;28;20949;-68
2024/02/11 08:37:32;;;;;;;12.47;5.67;;;;;;;8.99;100.00;98549.28;5037029;28;20505;-68
2024/02/11 08:39:59;;;;;;;10.90;4.73;;;;;;;9.00;100.00;98546.25;5036265;28;20530;-68
2024/02/11 08:42:27;;;;;;;14.57;5.40;;;;;;;9.05;100.00;98550.63;5035930;28;21000;-68
2024/02/11 08:44:54;;;;;;;9.97;4.90;;;;;;;9.10;100.00;98550.38;5036378;28;20450;-68
2024/02/11 08:47:20;;;;;;;11.07;5.07;;;;;;;9.09;100.00;98548.81;5036277;28;20475;-68
2024/02/11 08:49:48;;;;;;;13.73;6.33;;;;;;;9.12;100.00;98548.16;5036489;28;20539;-68
2024/02/11 08:52:15;;;;;;;10.50;6.77;;;;;;;9.13;100.00;98554.31;5036298;28;20467;-68
2024/02/11 08:54:42;;;;;;;14.70;5.17;;;;;;;9.16;100.00;98559.81;5036493;28;20514;-68
2024/02/11 08:57:10;;;;;;;10.67;5.60;;;;;;;9.21;100.00;98564.19;5035977;28;20443;-68
2024/02/11 08:59:41;;;;;;;14.90;5.80;;;;;;;9.19;100.00;98561.84;5036030;28;20526;-68
2024/02/11 09:02:10;;;;;;;9.57;4.27;;;;;;;9.21;100.00;98561.50;5035826;28;20497;-68
2024/02/11 09:04:37;;;;;;;15.10;6.20;;;;;;;9.16;100.00;98570.63;5035930;28;20443;-68
2024/02/11 09:07:06;;;;;;;15.77;7.23;;;;;;;9.23;100.00;98565.44;5036009;28;20846;-68
2024/02/11 09:09:33;;;;;;;10.47;5.13;;;;;;;9.23;100.00;98570.84;5036136;28;20454;-69
2024/02/11 09:12:01;;;;;;;11.23;5.43;;;;;;;9.20;100.00;98566.09;5035786;28;20901;-68
2024/02/11 09:14:29;;;;;;;16.83;6.67;;;;;;;9.30;100.00;98572.97;5036309;28;20435;-71
2024/02/11 09:16:58;;;;;;;14.37;6.17;;;;;;;9.32;100.00;98571.47;5035486;28;20522;-67
2024/02/11 09:19:25;;;;;;;12.50;5.47;;;;;;;9.31;100.00;98572.63;5035854;28;21041;-68
2024/02/11 09:21:52;;;;;;;11.60;5.40;;;;;;;9.32;100.00;98566.09;5035419;28;21016;-69
2024/02/11 09:24:19;;;;;;;23.90;7.27;;;;;;;9.34;100.00;98571.94;5034706;28;20486;-69
2024/02/11 09:26:45;;;;;;;12.27;5.50;;;;;;;9.29;100.00;98572.16;5035791;28;20454;-69
2024/02/11 09:29:13;;;;;;;13.33;6.60;;;;;;;9.32;100.00;98568.78;5035772;28;20548;-68
2024/02/11 09:31:40;;;;;;;14.07;6.23;;;;;;;9.38;100.00;98569.31;5035638;28;20443;-69
2024/02/11 09:34:08;;;;;;;14.53;6.83;;;;;;;9.41;100.00;98567.88;5035757;28;20471;-69
2024/02/11 09:36:35;;;;;;;10.80;5.43;;;;;;;9.44;100.00;98562.56;5035331;28;20439;-69
2024/02/11 09:39:03;;;;;;;25.67;6.77;;;;;;;9.44;100.00;98559.88;5035302;28;20781;-69
2024/02/11 09:41:29;;;;;;;11.70;5.83;;;;;;;9.44;100.00;98559.09;5036080;28;20486;-69
2024/02/11 09:43:58;;;;;;;21.33;8.23;;;;;;;9.40;100.00;98563.59;5035224;28;20449;-68
2024/02/11 09:46:27;;;;;;;17.83;5.10;;;;;;;9.40;100.00;98569.00;5035378;28;20490;-68
2024/02/11 09:48:58;;;;;;;14.23;6.37;;;;;;;9.42;100.00;98566.72;5034803;28;20906;-68
2024/02/11 09:51:29;;;;;;;14.00;6.40;;;;;;;9.37;100.00;98565.06;5035160;28;20466;-68
2024/02/11 09:54:00;;;;;;;17.60;5.93;;;;;;;9.43;100.00;98563.69;5035149;28;20432;-68
2024/02/11 09:56:27;;;;;;;17.93;7.70;;;;;;;9.45;100.00;98566.84;5035587;28;20420;-68
2024/02/11 09:58:54;;;;;;;14.10;6.90;;;;;;;9.46;100.00;98568.41;5034569;28;20447;-68
2024/02/11 10:01:21;;;;;;;15.43;6.13;;;;;;;9.42;100.00;98572.13;5035090;28;20565;-68
2024/02/11 10:03:53;;;;;;;19.83;6.20;;;;;;;9.44;100.00;98576.06;5034782;28;20466;-68
2024/02/11 10:06:25;;;;;;;13.43;7.10;;;;;;;9.48;100.00;98568.84;5034791;28;20428;-68
2024/02/11 10:08:53;;;;;;;11.97;5.80;;;;;;;9.48;100.00;98570.78;5034848;28;20925;-68
2024/02/11 10:11:19;;;;;;;18.17;7.33;;;;;;;9.49;100.00;98572.34;5034663;28;20533;-69
2024/02/11 10:13:46;;;;;;;18.30;7.20;;;;;;;9.51;100.00;98575.47;5034506;28;20870;-68
2024/02/11 10:16:13;;;;;;;15.67;5.40;;;;;;;9.50;100.00;98574.69;5034285;28;21025;-68
2024/02/11 10:18:39;;;;;;;14.83;6.13;;;;;;;9.53;100.00;98576.72;5034548;28;20478;-69
2024/02/11 10:21:08;;;;;;;16.50;7.10;;;;;;;9.54;100.00;98574.81;5034667;28;20498;-69
2024/02/11 10:23:39;;;;;;;15.33;7.07;;;;;;;9.54;100.00;98569.41;5034588;28;20466;-69
2024/02/11 10:26:09;;;;;;;11.50;5.50;;;;;;;9.56;100.00;98572.53;5034462;28;20807;-69
2024/02/11 10:28:37;;;;;;;15.10;5.77;;;;;;;9.58;100.00;98571.06;5034359;28;20513;-69
2024/02/11 10:31:05;;;;;;;15.90;6.30;;;;;;;9.54;100.00;98570.19;5034301;28;20443;-69
2024/02/11 10:33:32;;;;;;;15.07;6.53;;;;;;;9.54;100.00;98574.81;5034250;28;20469;-69
2024/02/11 10:35:59;;;;;;;13.70;5.37;;;;;;;9.63;100.00;98563.84;5034211;28;20474;-68
2024/02/11 10:38:27;;;;;;;15.03;5.73;;;;;;;9.65;100.00;98572.38;5034147;28;20504;-68
2024/02/11 10:40:54;;;;;;;22.63;6.53;;;;;;;9.60;100.00;98570.72;5034438;28;20525;-68
2024/02/11 10:43:24;;;;;;;18.23;6.40;;;;;;;9.64;100.00;98574.31;5034400;28;20551;-69
2024/02/11 10:45:51;;;;;;;19.97;7.13;;;;;;;9.69;100.00;98570.56;5034055;28;20435;-68
2024/02/11 10:48:19;;;;;;;12.63;5.53;;;;;;;9.69;100.00;98571.34;5034046;28;20431;-68
2024/02/11 10:50:57;;;;;;;14.50;5.23;;;;;;;9.72;100.00;98564.47;5034628;28;20534;-68
2024/02/11 10:53:24;;;;;;;15.73;6.70;;;;;;;9.72;100.00;98565.25;5033916;28;20459;-68
2024/02/11 10:55:51;;;;;;;11.80;5.77;;;;;;;9.72;100.00;98559.06;5033821;28;20435;-68
2024/02/11 10:58:24;;;;;;;17.63;5.40;;;;;;;9.73;100.00;98564.13;5033936;28;20449;-68
2024/02/11 11:00:53;;;;;;;17.57;5.60;;;;;;;9.71;100.00;98555.59;5034090;28;20443;-68
2024/02/11 11:03:26;;;;;;;12.80;6.60;;;;;;;9.67;100.00;98557.41;5033669;28;20463;-68
2024/02/11 11:05:57;;;;;;;17.30;6.27;;;;;;;9.62;100.00;98560.34;5033443;28;20476;-68
2024/02/11 11:08:24;;;;;;;12.63;4.83;;;;;;;9.60;100.00;98549.09;5033645;28;20443;-68
2024/02/11 11:10:51;;;;;;;11.20;6.20;;;;;;;9.61;100.00;98556.09;5033415;28;20478;-68
2024/02/11 11:13:24;;;;;;;16.37;5.77;;;;;;;9.58;100.00;98546.75;5033561;28;20474;-68
2024/02/11 11:15:53;;;;;;;10.40;5.47;;;;;;;9.57;100.00;98547.88;5033394;28;20434;-69
2024/02/11 11:18:23;;;;;;;16.97;5.90;;;;;;;9.46;100.00;98551.41;5034506;28;20447;-69
2024/02/11 11:20:54;;;;;;;12.13;5.53;;;;;;;9.40;100.00;98544.69;5034367;28;20923;-69
2024/02/11 11:23:20;;;;;;;11.60;5.70;;;;;;;9.40;100.00;98548.16;5033458;28;20470;-69
2024/02/11 11:25:55;;;;;;;13.40;6.20;;;;;;;9.43;100.00;98541.28;5033562;28;20476;-69